Kipnuk Airport

About
Name: Kipnuk Airport
Identifier:  KPN/PAKI
Serves:  Kipnuk, Alaska
Owner:  Alaska DOT&PF - Central Region
Public/Private:  Public
Local Time:  25. Aug 05:16 AKDT
Description: Kipnuk Airport is a state-owned public-use airport serving Kipnuk, in the Bethel Census Area of the U.S. state of Alaska.
Source: Wikipedia
Location
Runways
Identifier Length (m/ft) Surface
15/33 2,120/2,120 Gravel
Statistics
Flights per Day:
3 flights
Distance: 124km (77mi)
Flights delayed:
31% (2 flights per day delayed)
Delay Average: 72 minutes
Current Weather
 9 C (Humidity: 93%)
  7kt (12km/h / 8mph) from 350°
  Overcast at 4,800 feet (1,463 meter)
  16km (10 mi.)
 METAR PAKI 251256Z AUTO 35007KT 10SM OVC048 09/08 A2998 RMK AO2 SLP152 T00940083

Current Flights

Arrivals
Number Arrival From Airline
 GV242 17:50 +1209  Bethel Grant Aviation
 GV241 13:50 +11  Bethel Grant Aviation

Current Delays

Departures
N/A
Arrivals
N/A

Destinations

Top Destinations
Airport Flights
per week
Seats
per week
  Bethel (BET) 0 - 0 0
  Kwigillingok (KWK) 0 - 0 0

Airlines & Planes

Top Airlines
Airline Flights
per Day
Seats
per Day
Ravn Alaska 0 -
Top Plane Types
Model Flights Seats
Cessna C208 0.2/day - 0